Aviation Digital Data Service (ADDS)

Output produced by METARs form (2340 UTC 25 February 2018)
found at http://www.aviationweather.gov/adds/metars/
 
SUCA 252100Z 14018KT 9999 FEW033 BKN200 23/17 Q1015
TAF SUCA 252330Z 2600/2624 14015KT 9999 FEW030 BKN200 TX27/2618Z TN16/2609Z 
     BECMG 2606/2608 05010KT 
     PROB40 
     TEMPO 2606/2610 3500 BR 
     BECMG 2616/2618 14018KT 9999 SCT030 FEW033TCU
       
TAF SUDU 252330Z 2600/2624 14005KT CAVOK TX31/2618Z TN17/2609Z 
     PROB40 
     TEMPO 2606/2610 1000 BCFG BKN008 
     BECMG 2616/2618 SCT030 FEW033TCU SCT080 BKN200
       
SUMU 252300Z 12011KT 9999 FEW020 21/15 Q1018 NOSIG
TAF SUMU 252330Z 2600/2624 12012KT 9999 FEW025 TX27/2618Z TN14/2609Z 
     BECMG 2602/2604 06010KT CAVOK 
     PROB40 
     TEMPO 2609/2611 1000 BCFG SCT008 
     BECMG 2616/2618 14015KT 9999 SCT030
       
SUAA 252200Z 15009KT 9999 FEW033 23/15 Q1018
TAF SUAA 252330Z 2600/2624 12012KT 9999 FEW025 TX27/2618Z TN14/2609Z 
     BECMG 2602/2604 06010KT CAVOK 
     PROB40 
     TEMPO 2609/2611 1000 BCFG SCT008 
     BECMG 2616/2618 14015KT 9999 SCT030
       
SULS 252300Z 10005KT CAVOK 20/14 Q1018
TAF SULS 252330Z 2600/2624 12012KT 9999 FEW025 TX26/2618Z TN15/2609Z 
     BECMG 2602/2604 06010KT CAVOK 
     PROB40 
     TEMPO 2609/2611 1000 BCFG SCT008 
     BECMG 2616/2618 14015KT 9999 SCT030
       
TAF SURV 252330Z 2600/2624 14005KT CAVOK TX31/2618Z TN17/2609Z 
     PROB40 
     TEMPO 2606/2610 1000 BCFG BKN008 
     BECMG 2616/2618 SCT030 FEW033TCU SCT080 BKN200
       
SUSO 252000Z 14005KT 9999 SCT030 BKN200 31/15 Q1013
TAF SUSO 252330Z 2600/2624 12005KT 9999 SCT030 BKN200 TX32/2618Z TN19/2609Z 
     PROB40 
     TEMPO 2606/2610 3500 BR 
     BECMG 2616/2618 SCT030 FEW033TCU SCT080 BKN200